Time;durP1;ratioP1;P1;durP2;ratioP2;P2;SDS_P1;SDS_P2;PMS_P1;PMS_P2;Temp;Humidity;BMP_temperature;BMP_pressure;BME280_temperature;BME280_humidity;BME280_pressure;Samples;Min_cycle;Max_cycle;Signal;HPM_P1;HPM_P2
2021/09/07 00:02:32;;;;;;;3.92;2.25;;;;;;;10.67;61.82;101941.91;1811847;79;21153;-63
2021/09/07 00:05:07;;;;;;;3.83;2.08;;;;;;;10.67;61.93;101946.30;1812110;79;21168;-63
2021/09/07 00:07:41;;;;;;;5.30;2.15;;;;;;;10.64;61.87;101934.70;1780847;79;21276;-63
2021/09/07 00:10:15;;;;;;;6.47;2.35;;;;;;;10.62;61.77;101940.50;1813650;79;21279;-63
2021/09/07 00:12:50;;;;;;;4.25;2.30;;;;;;;10.59;61.75;101944.16;1812087;79;21315;-62
2021/09/07 00:15:24;;;;;;;4.65;2.85;;;;;;;10.57;61.96;101947.80;1813451;79;21145;-62
2021/09/07 00:17:58;;;;;;;5.92;2.20;;;;;;;10.53;62.14;101956.79;1812150;79;21173;-63
2021/09/07 00:20:32;;;;;;;4.80;2.30;;;;;;;10.47;62.45;101951.45;1813465;79;21255;-63
2021/09/07 00:23:06;;;;;;;4.10;2.35;;;;;;;10.42;62.49;101952.66;1812196;79;21723;-63
2021/09/07 00:25:40;;;;;;;4.75;2.10;;;;;;;10.40;62.27;101957.16;1813326;79;21747;-63
2021/09/07 00:28:13;;;;;;;7.40;2.05;;;;;;;10.37;62.17;101962.56;1812035;79;21263;-63
2021/09/07 00:30:47;;;;;;;;;;;;;;;10.32;62.19;101964.66;1816202;79;21770;-63
2021/09/07 00:33:20;;;;;;;3.95;2.17;;;;;;;10.27;62.12;101967.52;1812001;79;20260;-63
2021/09/07 00:35:55;;;;;;;5.50;1.90;;;;;;;10.20;62.08;101971.44;1813322;79;21291;-63
2021/09/07 00:38:29;;;;;;;5.22;2.27;;;;;;;10.15;62.09;101970.41;1812092;79;21279;-63
2021/09/07 00:41:03;;;;;;;4.22;2.20;;;;;;;10.11;62.13;101971.97;1813492;79;21252;-63
2021/09/07 00:43:42;;;;;;;6.12;2.20;;;;;;;10.05;62.20;101975.78;1811840;79;21311;-63
2021/09/07 00:46:15;;;;;;;4.08;2.15;;;;;;;10.00;62.33;101966.08;1783624;79;21644;-63
2021/09/07 00:48:49;;;;;;;11.38;2.20;;;;;;;9.97;62.47;101973.25;1811888;79;21204;-62
2021/09/07 00:51:26;;;;;;;3.72;1.92;;;;;;;9.94;62.71;101976.89;1813429;79;21240;-63
2021/09/07 00:53:58;;;;;;;4.30;2.17;;;;;;;9.91;62.98;101979.67;1812048;79;21730;-63
2021/09/07 00:56:33;;;;;;;6.30;2.37;;;;;;;9.89;63.23;101985.93;1813439;79;21259;-62
2021/09/07 00:59:07;;;;;;;5.45;2.25;;;;;;;9.87;63.48;101983.41;1812720;79;21830;-63
2021/09/07 01:01:40;;;;;;;3.33;1.92;;;;;;;9.87;63.74;101981.26;1813838;79;21641;-62
2021/09/07 01:04:17;;;;;;;5.05;2.58;;;;;;;9.84;63.84;101984.08;1811836;79;21664;-62
2021/09/07 01:06:51;;;;;;;4.03;2.55;;;;;;;9.82;63.98;101980.68;1813324;79;21764;-62
2021/09/07 01:09:26;;;;;;;4.33;2.25;;;;;;;9.78;64.07;101980.03;1811567;79;21145;-63
2021/09/07 01:12:01;;;;;;;4.37;2.00;;;;;;;9.76;64.20;101982.36;1813299;79;21235;-62
2021/09/07 01:14:37;;;;;;;6.15;1.90;;;;;;;9.74;64.32;101985.08;1813644;79;21235;-63
2021/09/07 01:17:17;;;;;;;6.47;2.22;;;;;;;9.71;64.40;101990.48;1811575;79;21583;-64
2021/09/07 01:19:52;;;;;;;4.20;2.42;;;;;;;9.68;64.50;101991.10;1812612;79;21786;-64
2021/09/07 01:22:25;;;;;;;;;;;;;;;9.63;64.55;101994.44;1816183;79;21747;-64
2021/09/07 01:24:58;;;;;;;3.83;2.17;;;;;;;9.57;64.70;101996.11;1813497;79;20232;-64
2021/09/07 01:27:33;;;;;;;4.40;2.20;;;;;;;9.48;64.94;102002.23;1811453;79;21279;-64
2021/09/07 01:30:08;;;;;;;5.58;2.50;;;;;;;9.42;65.19;101999.13;1812636;79;21795;-64
2021/09/07 01:32:41;;;;;;;6.75;2.50;;;;;;;9.37;65.37;101999.39;1813258;79;21133;-63
2021/09/07 01:35:15;;;;;;;12.55;2.20;;;;;;;9.35;65.54;102003.02;1813607;79;21759;-62
2021/09/07 01:37:50;;;;;;;6.15;2.33;;;;;;;9.32;65.75;102003.18;1813236;79;21240;-62
2021/09/07 01:40:24;;;;;;;6.03;2.60;;;;;;;9.32;65.89;102003.18;1812379;79;21252;-62
2021/09/07 01:42:58;;;;;;;7.92;2.72;;;;;;;9.32;66.00;101999.26;1813389;79;21247;-63
2021/09/07 01:45:31;;;;;;;;;;;;;;;9.31;66.05;102000.20;1815165;79;21288;-62
2021/09/07 01:48:06;;;;;;;6.08;2.77;;;;;;;9.31;66.10;102001.02;1811600;78;20541;-62
2021/09/07 01:50:39;;;;;;;;;;;;;;;9.31;66.17;101998.90;1814826;79;21306;-61
2021/09/07 01:53:13;;;;;;;7.87;2.80;;;;;;;9.32;66.13;102005.80;1813423;79;20225;-62
2021/09/07 01:55:48;;;;;;;6.22;2.52;;;;;;;9.30;66.24;102006.35;1813288;79;21272;-62
2021/09/07 01:58:22;;;;;;;5.05;2.60;;;;;;;9.31;66.29;102014.09;1813198;79;21156;-62
2021/09/07 02:00:56;;;;;;;7.75;2.65;;;;;;;9.30;66.32;102007.66;1812098;79;21707;-62
2021/09/07 02:03:31;;;;;;;4.70;2.52;;;;;;;9.31;66.41;102014.09;1813086;79;21265;-62
2021/09/07 02:06:06;;;;;;;4.80;2.33;;;;;;;9.30;66.45;102017.66;1813245;79;21169;-62
2021/09/07 02:08:41;;;;;;;6.37;2.67;;;;;;;9.28;66.59;102019.97;1811618;79;21148;-62
2021/09/07 02:11:14;;;;;;;;;;;;;;;9.29;66.75;102029.02;1814826;79;21335;-62
2021/09/07 02:13:48;;;;;;;7.83;2.80;;;;;;;9.28;66.82;102022.12;1813043;79;20165;-62
2021/09/07 02:16:22;;;;;;;7.65;2.40;;;;;;;9.26;66.83;102022.68;1813817;79;21247;-62
2021/09/07 02:18:55;;;;;;;5.75;2.75;;;;;;;9.27;66.74;102023.04;1813317;79;21331;-62
2021/09/07 02:21:29;;;;;;;6.22;2.33;;;;;;;9.29;66.65;102025.59;1812407;79;21243;-63
2021/09/07 02:24:03;;;;;;;4.20;2.08;;;;;;;9.27;66.65;102025.66;1812968;79;21279;-62
2021/09/07 02:26:36;;;;;;;6.33;2.75;;;;;;;9.28;66.64;102029.12;1813561;79;21255;-62
2021/09/07 02:29:09;;;;;;;5.12;2.67;;;;;;;9.28;66.65;102030.42;1813493;79;21782;-62
2021/09/07 02:31:43;;;;;;;6.28;2.80;;;;;;;9.28;66.65;102029.97;1811882;79;21149;-63
2021/09/07 02:34:18;;;;;;;6.28;2.95;;;;;;;9.28;66.67;102036.95;1813045;79;21750;-64
2021/09/07 02:36:51;;;;;;;;;;;;;;;9.29;66.63;102042.58;1816428;79;21233;-64
2021/09/07 02:39:25;;;;;;;6.35;2.62;;;;;;;9.29;66.60;102043.88;1781680;79;20184;-63
2021/09/07 02:41:58;;;;;;;7.78;3.05;;;;;;;9.26;66.60;102038.81;1812514;79;21655;-64
2021/09/07 02:44:32;;;;;;;8.25;2.62;;;;;;;9.27;66.63;102041.79;1813142;79;21141;-63
2021/09/07 02:47:07;;;;;;;7.37;2.75;;;;;;;9.28;66.65;102039.57;1812171;79;21814;-64
2021/09/07 02:49:40;;;;;;;6.55;2.83;;;;;;;9.27;66.64;102046.56;1813191;79;21743;-63
2021/09/07 02:52:14;;;;;;;5.28;2.35;;;;;;;9.27;66.65;102049.63;1811980;79;21263;-62
2021/09/07 02:54:49;;;;;;;6.10;2.77;;;;;;;9.28;66.75;102048.72;1812926;79;21275;-63
2021/09/07 02:57:23;;;;;;;8.23;2.73;;;;;;;9.28;66.67;102050.87;1814028;79;21228;-62
2021/09/07 02:59:57;;;;;;;6.03;2.60;;;;;;;9.29;66.59;102053.03;1812875;79;21279;-62
2021/09/07 03:02:32;;;;;;;9.88;3.02;;;;;;;9.28;66.56;102059.17;1813761;79;21240;-62
2021/09/07 03:05:08;;;;;;;7.05;2.67;;;;;;;9.28;66.50;102055.25;1812961;79;21306;-62
2021/09/07 03:07:41;;;;;;;7.17;3.20;;;;;;;9.28;66.58;102061.33;1813350;79;21239;-62
2021/09/07 03:10:15;;;;;;;8.07;2.90;;;;;;;9.31;66.68;102055.91;1813039;79;21169;-62
2021/09/07 03:12:49;;;;;;;5.00;2.83;;;;;;;9.37;66.68;102062.58;1811590;79;21140;-61
2021/09/07 03:15:24;;;;;;;;;;;;;;;9.41;66.68;102068.01;1815530;79;21315;-62
2021/09/07 03:17:57;;;;;;;5.15;2.47;;;;;;;9.46;66.62;102075.14;1813665;79;20251;-62
2021/09/07 03:20:30;;;;;;;;;;;;;;;9.47;66.57;102076.84;1815268;79;21275;-62
2021/09/07 03:23:03;;;;;;;6.67;2.67;;;;;;;9.47;66.60;102078.99;1813336;79;20220;-62
2021/09/07 03:25:37;;;;;;;5.97;2.83;;;;;;;9.47;66.66;102080.30;1813216;79;21264;-62
2021/09/07 03:28:10;;;;;;;7.22;2.90;;;;;;;9.48;66.64;102078.54;1813445;79;21806;-62
2021/09/07 03:30:44;;;;;;;6.78;2.77;;;;;;;9.50;66.71;102079.30;1812843;79;21350;-62
2021/09/07 03:33:19;;;;;;;5.85;3.08;;;;;;;9.53;66.72;102084.81;1813514;79;21754;-62
2021/09/07 03:35:53;;;;;;;6.67;2.77;;;;;;;9.55;66.65;102094.27;1812618;79;21149;-62
2021/09/07 03:38:27;;;;;;;8.13;2.70;;;;;;;9.59;66.65;102092.30;1813437;79;21244;-62
2021/09/07 03:41:00;;;;;;;9.08;3.55;;;;;;;9.61;66.60;102088.67;1812986;79;21279;-62
2021/09/07 03:43:35;;;;;;;9.10;2.92;;;;;;;9.65;66.57;102090.19;1813615;79;21756;-62
2021/09/07 03:46:08;;;;;;;7.60;2.90;;;;;;;9.73;66.42;102097.61;1812899;79;21339;-62
2021/09/07 03:48:42;;;;;;;9.40;2.92;;;;;;;9.81;66.24;102098.88;1809462;79;21264;-62
2021/09/07 03:51:15;;;;;;;6.45;2.62;;;;;;;9.98;65.92;102103.97;1809816;79;21145;-63
2021/09/07 03:53:49;;;;;;;6.78;3.25;;;;;;;10.17;65.54;102106.89;1810487;79;21138;-62
2021/09/07 03:56:27;;;;;;;7.55;2.80;;;;;;;10.32;65.25;102104.22;1808976;79;21171;-63
2021/09/07 03:58:59;;;;;;;10.32;3.95;;;;;;;10.59;64.76;102110.92;1810663;79;21300;-62
2021/09/07 04:01:33;;;;;;;6.22;3.12;;;;;;;11.07;64.04;102114.52;1809809;79;21287;-62
2021/09/07 04:04:10;;;;;;;8.45;3.10;;;;;;;11.75;62.69;102112.00;1810470;79;21287;-62
2021/09/07 04:06:43;;;;;;;9.98;3.52;;;;;;;12.47;60.80;102115.48;1809614;79;21216;-62
2021/09/07 04:09:17;;;;;;;7.80;2.65;;;;;;;13.13;58.56;102117.48;1810653;79;21258;-63
2021/09/07 04:11:51;;;;;;;6.12;2.75;;;;;;;13.50;56.61;102111.77;1809690;79;21275;-62
2021/09/07 04:14:25;;;;;;;4.35;2.80;;;;;;;13.86;55.03;102122.27;1810484;79;21244;-63
2021/09/07 04:16:58;;;;;;;5.30;2.85;;;;;;;14.15;54.07;102117.02;1809601;79;21196;-63
2021/09/07 04:19:32;;;;;;;5.20;3.15;;;;;;;14.43;53.13;102113.18;1810600;79;21130;-63
2021/09/07 04:22:06;;;;;;;12.63;4.97;;;;;;;14.62;52.22;102112.62;1808690;79;21143;-62
2021/09/07 04:24:39;;;;;;;7.20;3.37;;;;;;;14.84;51.56;102113.50;1810903;79;21786;-63
2021/09/07 04:27:12;;;;;;;;;;;;;;;15.65;50.04;102118.98;1811448;79;21191;-64
2021/09/07 04:29:46;;;;;;;5.58;3.00;;;;;;;16.69;47.77;102111.09;1810470;79;20217;-64
2021/09/07 04:32:19;;;;;;;5.10;2.20;;;;;;;17.67;45.33;102118.83;1809632;79;21383;-64
2021/09/07 04:34:52;;;;;;;4.40;2.40;;;;;;;18.62;42.57;102114.02;1810723;79;21247;-64
2021/09/07 04:37:26;;;;;;;4.10;2.33;;;;;;;19.43;40.36;102109.31;1809575;79;21163;-64
2021/09/07 04:40:00;;;;;;;7.25;2.50;;;;;;;20.20;38.35;102107.42;1810332;79;21252;-64
2021/09/07 04:42:34;;;;;;;3.05;2.15;;;;;;;20.90;36.83;102101.61;1809378;79;21276;-63
2021/09/07 04:45:09;;;;;;;6.25;2.40;;;;;;;21.51;35.35;102108.88;1810474;79;21129;-63
2021/09/07 04:47:42;;;;;;;5.55;2.40;;;;;;;22.08;34.01;102109.84;1778828;79;21260;-64
2021/09/07 04:50:16;;;;;;;5.87;2.30;;;;;;;22.65;32.81;102111.50;1808654;79;21133;-68
2021/09/07 04:52:49;;;;;;;6.60;2.80;;;;;;;23.14;31.84;102115.37;1806161;79;21275;-68
2021/09/07 04:55:23;;;;;;;5.12;2.30;;;;;;;23.61;31.18;102115.33;1809739;79;21299;-69
2021/09/07 04:57:56;;;;;;;3.72;2.40;;;;;;;24.05;30.41;102122.53;1803009;79;21232;-70
2021/09/07 05:00:29;;;;;;;;;;;;;;;24.50;29.48;102116.84;1792482;79;21283;-70
2021/09/07 05:03:03;;;;;;;6.17;2.85;;;;;;;24.85;28.80;102113.49;1793722;79;20261;-66
2021/09/07 05:05:37;;;;;;;4.53;2.30;;;;;;;25.20;28.38;102118.09;1801210;79;21185;-67
2021/09/07 05:08:10;;;;;;;4.15;2.27;;;;;;;25.73;27.20;102115.55;1788688;79;21203;-62
2021/09/07 05:10:43;;;;;;;6.75;2.20;;;;;;;26.06;26.68;102122.58;1790027;78;21318;-69
2021/09/07 05:13:17;;;;;;;5.70;2.37;;;;;;;26.47;25.80;102119.56;1796456;78;21287;-68
2021/09/07 05:15:50;;;;;;;5.62;2.15;;;;;;;26.86;25.04;102118.20;1794699;78;21275;-71
2021/09/07 05:18:23;;;;;;;5.75;2.50;;;;;;;27.20;24.62;102117.64;1788894;78;21247;-65
2021/09/07 05:20:56;;;;;;;6.12;2.30;;;;;;;27.54;24.31;102126.73;1789916;78;21310;-66
2021/09/07 05:23:30;;;;;;;6.40;2.60;;;;;;;27.95;23.88;102122.88;1794568;78;21334;-64
2021/09/07 05:26:03;;;;;;;4.72;2.58;;;;;;;28.30;23.28;102130.81;1793618;78;21298;-63
2021/09/07 05:28:37;;;;;;;4.03;2.42;;;;;;;28.60;23.08;102133.41;1794176;78;21156;-67
2021/09/07 05:31:12;;;;;;;3.85;1.95;;;;;;;28.99;22.52;102129.81;1727115;81;21314;-66
2021/09/07 05:33:46;;;;;;;8.15;2.45;;;;;;;29.33;22.17;102130.84;1732091;82;21325;-65
2021/09/07 05:36:20;;;;;;;3.17;2.22;;;;;;;29.72;21.58;102134.70;1728983;82;21205;-71
2021/09/07 05:38:53;;;;;;;3.17;2.30;;;;;;;30.04;21.19;102137.43;1754139;81;21248;-70
2021/09/07 05:41:26;;;;;;;2.80;2.27;;;;;;;30.28;20.68;102139.33;1729209;82;21339;-66
2021/09/07 05:44:00;;;;;;;4.87;2.90;;;;;;;30.55;20.29;102141.59;1726696;82;21303;-66
2021/09/07 05:46:34;;;;;;;;;;;;;;;30.89;20.12;102132.13;1731530;81;21284;-66
2021/09/07 05:49:06;;;;;;;;;;;;;;;31.33;19.55;102140.98;1736581;81;20385;-69
2021/09/07 05:51:41;;;;;;;3.70;2.30;;;;;;;31.75;18.97;102146.78;1732620;82;20300;-67
2021/09/07 05:54:13;;;;;;;6.60;2.58;;;;;;;32.05;18.64;102151.69;1762343;80;21286;-67
2021/09/07 05:56:47;;;;;;;4.47;2.40;;;;;;;32.39;18.30;102148.71;1761247;80;21271;-66
2021/09/07 05:59:22;;;;;;;3.15;2.50;;;;;;;32.66;17.51;102153.17;1752684;80;21295;-69
2021/09/07 06:01:54;;;;;;;2.58;1.98;;;;;;;32.60;17.33;102150.34;1760898;80;21199;-66
2021/09/07 06:04:28;;;;;;;4.87;2.12;;;;;;;32.58;17.49;102153.00;1744003;81;21208;-66
2021/09/07 06:07:01;;;;;;;4.28;1.80;;;;;;;32.92;17.20;102152.16;1743394;81;21326;-66
2021/09/07 06:09:35;;;;;;;3.45;2.10;;;;;;;32.88;17.06;102154.23;1737779;81;21225;-65
2021/09/07 06:12:09;;;;;;;5.92;2.10;;;;;;;32.89;17.21;102159.96;1739024;81;21145;-67
2021/09/07 06:14:43;;;;;;;3.80;2.10;;;;;;;33.21;16.97;102155.78;1740251;81;21202;-69
2021/09/07 06:17:17;;;;;;;4.58;2.05;;;;;;;33.54;16.62;102153.22;1743061;81;21319;-70
2021/09/07 06:19:51;;;;;;;3.42;2.15;;;;;;;33.88;16.41;102159.03;1736461;81;21195;-68
2021/09/07 06:22:26;;;;;;;3.22;2.10;;;;;;;34.21;16.10;102167.78;1739868;82;21299;-68
2021/09/07 06:25:00;;;;;;;2.42;1.75;;;;;;;34.47;15.53;102168.47;1737485;81;21316;-64
2021/09/07 06:27:34;;;;;;;2.37;1.95;;;;;;;34.58;15.28;102164.59;1739881;82;21279;-64
2021/09/07 06:30:09;;;;;;;4.78;1.95;;;;;;;34.81;15.01;102173.36;1759366;80;21214;-68
2021/09/07 06:32:42;;;;;;;2.58;1.95;;;;;;;35.05;15.02;102167.19;1721705;82;21296;-66
2021/09/07 06:35:16;;;;;;;3.75;1.80;;;;;;;35.38;14.72;102167.05;1735214;82;21221;-68
2021/09/07 06:37:50;;;;;;;7.03;2.17;;;;;;;35.79;14.30;102167.81;1735246;82;21304;-68
2021/09/07 06:40:23;;;;;;;5.20;1.98;;;;;;;35.96;13.93;102169.05;1730173;82;21300;-69
2021/09/07 06:42:57;;;;;;;3.17;1.67;;;;;;;36.00;13.86;102167.48;1729843;82;21327;-67
2021/09/07 06:45:30;;;;;;;4.33;1.60;;;;;;;36.06;14.09;102172.44;1736404;82;21201;-70
2021/09/07 06:48:04;;;;;;;3.42;1.80;;;;;;;36.25;13.68;102175.06;1760260;80;21173;-70
2021/09/07 06:50:39;;;;;;;6.53;1.55;;;;;;;36.42;13.60;102177.11;1757281;80;21275;-67
2021/09/07 06:53:13;;;;;;;5.58;1.60;;;;;;;36.55;13.02;102178.03;1727515;81;21324;-67
2021/09/07 06:55:46;;;;;;;4.12;1.42;;;;;;;36.56;13.08;102180.23;1755590;80;21337;-70
2021/09/07 06:58:25;;;;;;;4.60;1.47;;;;;;;36.68;13.09;102187.14;1734741;82;21295;-66
2021/09/07 07:01:06;;;;;;;;;;;;;;;36.92;12.70;102184.31;1732664;82;21220;-68
2021/09/07 07:03:40;;;;;;;4.15;1.10;;;;;;;36.89;12.56;102180.71;1760134;80;20310;-65
2021/09/07 07:06:14;;;;;;;3.27;1.10;;;;;;;36.96;12.17;102184.59;1760853;81;21332;-68
2021/09/07 07:08:48;;;;;;;3.65;1.45;;;;;;;37.03;11.83;102187.36;1723605;82;21747;-64
2021/09/07 07:11:22;;;;;;;6.87;1.25;;;;;;;36.87;12.30;102182.89;1760368;80;21168;-72
2021/09/07 07:13:57;;;;;;;1.65;1.20;;;;;;;37.03;11.96;102183.80;1728079;82;21198;-68
2021/09/07 07:16:30;;;;;;;3.15;1.40;;;;;;;37.23;11.95;102185.27;1742082;81;21241;-66
2021/09/07 07:19:06;;;;;;;1.30;1.20;;;;;;;37.53;11.80;102181.30;1745968;82;21161;-68
2021/09/07 07:21:40;;;;;;;5.37;1.60;;;;;;;37.94;11.67;102184.12;1737856;82;21617;-70
2021/09/07 07:24:16;;;;;;;2.15;1.20;;;;;;;38.21;11.27;102174.58;1736486;82;21830;-68
2021/09/07 07:26:53;;;;;;;1.67;1.20;;;;;;;37.99;10.90;102178.67;1736741;81;21283;-70
2021/09/07 07:29:27;;;;;;;2.42;1.20;;;;;;;37.56;11.37;102182.13;1738810;82;21194;-68
2021/09/07 07:32:00;;;;;;;2.50;1.40;;;;;;;37.78;10.94;102179.97;1740566;82;21303;-65
2021/09/07 07:34:33;;;;;;;3.20;1.20;;;;;;;38.08;10.92;102181.95;1741908;82;21379;-73
2021/09/07 07:37:08;;;;;;;4.33;1.27;;;;;;;38.32;10.64;102188.55;1745245;81;21340;-65
2021/09/07 07:39:44;;;;;;;3.52;1.40;;;;;;;38.49;10.35;102184.70;1737513;81;21946;-65
2021/09/07 07:42:17;;;;;;;4.85;1.02;;;;;;;38.64;10.39;102180.57;1741082;82;21298;-66
2021/09/07 07:44:51;;;;;;;3.95;0.90;;;;;;;38.83;10.26;102181.65;1738245;81;21354;-66
2021/09/07 07:47:26;;;;;;;4.10;1.10;;;;;;;38.88;9.80;102182.44;1742580;81;21228;-64
2021/09/07 07:50:00;;;;;;;1.85;1.10;;;;;;;38.95;9.74;102184.36;1737860;81;21346;-65
2021/09/07 07:52:34;;;;;;;6.28;2.10;;;;;;;39.01;9.80;102188.70;1731140;81;21334;-64
2021/09/07 07:55:07;;;;;;;2.15;1.07;;;;;;;39.27;9.78;102189.98;1712587;83;22241;-66
2021/09/07 07:57:40;;;;;;;1.75;1.15;;;;;;;39.51;9.33;102191.78;1710579;83;22593;-67
2021/09/07 08:00:14;;;;;;;1.95;1.10;;;;;;;39.53;9.21;102189.57;1713118;83;21339;-70
2021/09/07 08:02:48;;;;;;;9.53;1.20;;;;;;;39.62;9.42;102189.84;1712881;83;21180;-69
2021/09/07 08:05:23;;;;;;;3.80;2.27;;;;;;;39.54;9.08;102183.55;1714560;83;21235;-68
2021/09/07 08:07:56;;;;;;;2.83;2.10;;;;;;;38.99;9.65;102191.45;1711904;83;21898;-68
2021/09/07 08:10:29;;;;;;;1.10;1.00;;;;;;;39.12;9.54;102177.17;1715250;83;21363;-64
2021/09/07 08:13:02;;;;;;;2.70;2.20;;;;;;;39.23;9.35;102190.28;1714503;83;21310;-66
2021/09/07 08:15:35;;;;;;;2.33;1.52;;;;;;;39.31;9.41;102191.08;1714244;83;21228;-65
2021/09/07 08:18:08;;;;;;;1.15;0.90;;;;;;;39.51;9.00;102184.93;1713252;83;21255;-67
2021/09/07 08:20:44;;;;;;;2.62;1.02;;;;;;;39.65;8.78;102196.94;1710702;83;21298;-69
2021/09/07 08:23:18;;;;;;;2.35;1.10;;;;;;;39.74;8.60;102190.31;1709464;83;21284;-70
2021/09/07 08:25:51;;;;;;;1.87;1.07;;;;;;;39.72;8.58;102187.02;1711373;83;21299;-67
2021/09/07 08:28:25;;;;;;;2.20;1.20;;;;;;;39.54;8.54;102182.17;1716205;83;21315;-69
2021/09/07 08:31:04;;;;;;;2.22;1.70;;;;;;;38.96;9.16;102183.23;1713961;83;21245;-71
2021/09/07 08:33:37;;;;;;;1.77;1.30;;;;;;;38.81;9.06;102180.54;1713986;83;21200;-67
2021/09/07 08:36:11;;;;;;;3.37;2.17;;;;;;;38.82;8.71;102183.56;1716700;83;21255;-64
2021/09/07 08:38:44;;;;;;;1.20;1.10;;;;;;;38.86;8.77;102183.27;1718105;83;21926;-63
2021/09/07 08:41:19;;;;;;;2.20;1.20;;;;;;;38.86;8.96;102181.09;1711017;83;21287;-68
2021/09/07 08:43:53;;;;;;;3.65;1.17;;;;;;;38.75;9.07;102179.47;1714983;83;21299;-66
2021/09/07 08:46:29;;;;;;;4.90;1.40;;;;;;;38.24;9.13;102177.28;1710365;83;21255;-65
2021/09/07 08:49:04;;;;;;;3.40;0.90;;;;;;;37.35;9.94;102183.13;1715269;83;21284;-67
2021/09/07 08:51:37;;;;;;;1.67;1.00;;;;;;;37.00;10.14;102179.70;1718245;83;21332;-64
2021/09/07 08:54:10;;;;;;;1.47;1.17;;;;;;;36.94;10.40;102186.23;1738787;82;21311;-67
2021/09/07 08:56:43;;;;;;;2.50;1.50;;;;;;;36.84;10.17;102186.14;1742245;82;21263;-64
2021/09/07 08:59:17;;;;;;;3.17;1.20;;;;;;;36.78;9.84;102177.62;1737561;82;21861;-64
2021/09/07 09:01:56;;;;;;;3.27;0.95;;;;;;;36.64;9.83;102180.55;1742414;81;21133;-64
2021/09/07 09:04:33;;;;;;;2.65;0.93;;;;;;;36.30;10.47;102181.36;1742970;81;21348;-64
2021/09/07 09:07:07;;;;;;;3.75;1.20;;;;;;;36.19;10.30;102178.28;1741271;82;21134;-65
2021/09/07 09:09:41;;;;;;;1.60;1.10;;;;;;;35.97;10.48;102174.77;1709997;81;21298;-63
2021/09/07 09:12:14;;;;;;;2.85;0.98;;;;;;;35.20;11.00;102166.83;1743880;82;21751;-65
2021/09/07 09:14:48;;;;;;;2.85;1.10;;;;;;;34.00;11.44;102171.72;1743717;81;21563;-68
2021/09/07 09:17:26;;;;;;;1.12;1.05;;;;;;;32.66;12.23;102172.16;1737404;82;21264;-66
2021/09/07 09:20:03;;;;;;;2.08;1.20;;;;;;;31.56;12.75;102170.90;1740927;81;21373;-66
2021/09/07 09:22:44;;;;;;;6.65;1.62;;;;;;;31.02;13.52;102162.27;1737889;82;21833;-65
2021/09/07 09:25:24;;;;;;;1.95;1.22;;;;;;;31.00;13.60;102161.67;1742117;81;21305;-64
2021/09/07 09:28:15;;;;;;;3.62;1.20;;;;;;;31.11;13.92;102156.34;1735718;82;21307;-68
2021/09/07 09:31:08;;;;;;;1.20;0.95;;;;;;;31.19;14.15;102159.27;1734443;81;21268;-63
2021/09/07 09:33:42;;;;;;;1.12;0.98;;;;;;;31.12;14.13;102161.23;1742887;82;21259;-65
2021/09/07 09:36:14;;;;;;;;;;;;;;;30.89;14.09;102155.13;1705841;82;21878;-64
2021/09/07 09:38:48;;;;;;;5.53;1.20;;;;;;;30.39;14.60;102158.38;1688088;82;20283;-64
2021/09/07 09:41:21;;;;;;;1.80;1.12;;;;;;;29.85;15.02;102160.83;1741012;81;21371;-65
2021/09/07 09:43:54;;;;;;;1.92;1.00;;;;;;;29.47;15.27;102161.31;1742157;82;21279;-63
2021/09/07 09:46:28;;;;;;;6.17;1.17;;;;;;;29.22;15.12;102166.59;1735110;82;21411;-63
2021/09/07 09:49:15;;;;;;;4.10;1.80;;;;;;;28.83;15.86;102161.28;1737048;82;21311;-66
2021/09/07 09:51:49;;;;;;;2.72;1.65;;;;;;;28.54;16.04;102173.30;1742704;81;21252;-65
2021/09/07 09:54:26;;;;;;;3.77;1.50;;;;;;;28.29;16.64;102173.08;1726427;82;21264;-64
2021/09/07 09:57:00;;;;;;;3.40;1.50;;;;;;;28.11;16.62;102166.64;1795325;79;21323;-68
2021/09/07 09:59:34;;;;;;;5.95;2.20;;;;;;;27.83;16.88;102170.78;1760543;79;21275;-64
2021/09/07 10:02:07;;;;;;;34.55;11.08;;;;;;;27.50;16.65;102161.77;1784730;79;21274;-62
2021/09/07 10:04:41;;;;;;;9.23;5.03;;;;;;;27.06;17.49;102165.66;1786548;79;21173;-67
2021/09/07 10:07:15;;;;;;;6.12;3.45;;;;;;;26.70;17.44;102166.34;1784949;79;21174;-64
2021/09/07 10:09:49;;;;;;;6.20;1.10;;;;;;;26.29;17.23;102170.75;1790104;79;21830;-66
2021/09/07 10:12:56;;;;;;;1.52;1.07;;;;;;;25.75;17.75;102171.69;1786968;79;21322;-65
2021/09/07 10:15:39;;;;;;;9.08;3.70;;;;;;;25.20;18.14;102163.66;1729612;81;21303;-66
2021/09/07 10:22:58;;;;;;;3.87;1.50;;;;;;;24.42;19.22;102175.81;1782834;79;21235;-66
2021/09/07 10:24:03;;;;;;;1.25;0.90;;;;;;;24.16;19.75;102176.19;1783743;79;21189;-64
2021/09/07 10:26:46;;;;;;;1.47;1.00;;;;;;;24.01;20.09;102181.44;1787467;79;21227;-65
2021/09/07 10:29:33;;;;;;;6.17;2.98;;;;;;;23.86;20.29;102181.05;1788642;79;21936;-64
2021/09/07 10:32:24;;;;;;;2.27;1.40;;;;;;;23.73;20.75;102179.44;1769575;79;21235;-62
2021/09/07 10:35:13;;;;;;;1.92;1.20;;;;;;;23.56;20.23;102176.51;1792604;79;21314;-65
2021/09/07 10:38:08;;;;;;;2.87;1.05;;;;;;;22.89;21.04;102179.20;1781999;79;21227;-64
2021/09/07 10:40:47;;;;;;;1.37;1.00;;;;;;;22.89;21.04;102179.20;1787916;79;21171;-68
2021/09/07 10:43:49;;;;;;;3.87;1.85;;;;;;;22.48;20.89;102183.22;1784604;79;21319;-68
2021/09/07 10:46:49;;;;;;;3.40;1.30;;;;;;;22.18;21.54;102175.03;1785302;78;21198;-61
2021/09/07 10:49:44;;;;;;;2.65;0.95;;;;;;;21.95;21.40;102176.98;1789251;79;22441;-64
2021/09/07 10:52:20;;;;;;;2.40;1.42;;;;;;;21.80;22.32;102177.27;1785394;79;22568;-62
2021/09/07 10:55:09;;;;;;;2.42;1.10;;;;;;;21.69;22.35;102174.89;1788802;79;21145;-62
2021/09/07 10:57:52;;;;;;;3.30;1.00;;;;;;;21.63;22.51;102178.70;1796078;79;21293;-68
2021/09/07 11:00:28;;;;;;;2.15;1.05;;;;;;;21.61;22.66;102180.70;1796741;79;21336;-65
2021/09/07 11:03:03;;;;;;;0.98;0.90;;;;;;;21.60;22.65;102181.20;1793677;79;21613;-65
2021/09/07 11:05:44;;;;;;;4.87;1.25;;;;;;;21.54;22.15;102177.86;1796091;79;21165;-67
2021/09/07 11:08:38;;;;;;;3.70;1.52;;;;;;;21.45;22.83;102178.80;1797035;78;22109;-64
2021/09/07 11:11:25;;;;;;;4.42;2.08;;;;;;;21.33;22.63;102175.58;1792533;79;22250;-64
2021/09/07 11:14:10;;;;;;;1.87;1.25;;;;;;;21.12;22.77;102171.64;1798060;79;21161;-65
2021/09/07 11:16:54;;;;;;;1.52;1.12;;;;;;;20.89;22.82;102173.14;1798925;79;21593;-65
2021/09/07 11:19:27;;;;;;;1.30;0.82;;;;;;;20.75;23.10;102171.38;1794101;79;21918;-66
2021/09/07 11:22:00;;;;;;;1.10;1.00;;;;;;;20.64;23.12;102172.97;1800625;78;21798;-69
2021/09/07 11:24:34;;;;;;;1.27;1.02;;;;;;;20.59;23.59;102171.27;1794548;79;21408;-67
2021/09/07 11:27:14;;;;;;;3.10;1.00;;;;;;;20.56;23.72;102177.41;1799543;79;21299;-69
2021/09/07 11:29:49;;;;;;;4.87;0.80;;;;;;;20.52;23.57;102170.22;1799182;79;21135;-68
2021/09/07 11:32:25;;;;;;;;;;;;;;;20.49;23.58;102176.36;1798023;79;21469;-66
2021/09/07 11:35:13;;;;;;;1.50;0.80;;;;;;;20.46;23.50;102172.17;1793971;79;20240;-67
2021/09/07 11:37:47;;;;;;;2.17;0.93;;;;;;;20.37;22.97;102173.59;1801012;79;21161;-65
2021/09/07 11:40:22;;;;;;;1.90;1.12;;;;;;;20.27;23.23;102171.02;1795177;79;22755;-69
2021/09/07 11:42:56;;;;;;;1.40;0.90;;;;;;;20.18;23.47;102170.05;1797003;79;21181;-67
2021/09/07 11:45:35;;;;;;;1.80;1.20;;;;;;;20.10;23.44;102171.33;1794805;79;21356;-64
2021/09/07 11:48:09;;;;;;;4.25;2.27;;;;;;;20.01;23.03;102168.73;1801553;79;21228;-65
2021/09/07 11:50:44;;;;;;;4.85;3.12;;;;;;;19.92;23.62;102162.48;1795111;79;21266;-65
2021/09/07 11:53:18;;;;;;;7.83;3.98;;;;;;;19.89;23.23;102160.64;1795404;79;21242;-69
2021/09/07 11:55:53;;;;;;;6.75;1.27;;;;;;;19.82;22.85;102160.89;1751261;79;21310;-67
2021/09/07 11:58:39;;;;;;;2.83;1.35;;;;;;;19.65;23.13;102163.87;1787094;79;21323;-67
2021/09/07 12:01:30;;;;;;;1.65;0.95;;;;;;;19.50;23.30;102160.02;1782763;79;21427;-64
2021/09/07 12:04:04;;;;;;;4.40;0.85;;;;;;;19.44;24.09;102162.77;1782985;79;21296;-64
2021/09/07 12:06:42;;;;;;;3.00;1.05;;;;;;;19.42;24.12;102165.23;1794343;79;21407;-63
2021/09/07 12:09:22;;;;;;;2.25;1.00;;;;;;;19.39;23.94;102165.02;1785091;79;21291;-66
2021/09/07 12:12:11;;;;;;;2.60;0.82;;;;;;;19.32;24.18;102161.25;1785694;79;21744;-68
2021/09/07 12:14:56;;;;;;;1.32;0.90;;;;;;;19.28;24.27;102158.55;1783350;79;21333;-65